Time;durP1;ratioP1;P1;durP2;ratioP2;P2;SDS_P1;SDS_P2;PMS_P1;PMS_P2;Temp;Humidity;BMP_temperature;BMP_pressure;BME280_temperature;BME280_humidity;BME280_pressure;Samples;Min_cycle;Max_cycle;Signal;HPM_P1;HPM_P2
2022/05/29 00:00:52;;;;;;;6.47;3.60;;;9.80;99.90;;;;;;5012532;28;20295;-67
2022/05/29 00:03:19;;;;;;;11.33;4.03;;;9.70;99.90;;;;;;5013722;28;20208;-68
2022/05/29 00:05:48;;;;;;;7.13;3.90;;;9.70;99.90;;;;;;5013007;28;20729;-68
2022/05/29 00:08:25;;;;;;;7.00;3.43;;;9.80;99.90;;;;;;5013238;28;20298;-68
2022/05/29 00:10:53;;;;;;;6.67;3.27;;;9.90;99.90;;;;;;5013440;28;20204;-68
2022/05/29 00:13:20;;;;;;;6.97;3.50;;;9.90;99.90;;;;;;5013063;28;20287;-68
2022/05/29 00:15:48;;;;;;;4.97;2.87;;;9.80;99.90;;;;;;5013119;28;20318;-67
2022/05/29 00:18:15;;;;;;;5.03;3.20;;;9.90;99.90;;;;;;5012957;28;20630;-67
2022/05/29 00:20:45;;;;;;;7.33;2.87;;;9.90;99.90;;;;;;5012733;28;20322;-67
2022/05/29 00:23:12;;;;;;;4.63;2.73;;;9.90;99.90;;;;;;5012790;28;20781;-67
2022/05/29 00:25:42;;;;;;;7.93;3.33;;;9.90;99.90;;;;;;5012739;28;20318;-68
2022/05/29 00:28:09;;;;;;;5.93;2.90;;;9.90;99.90;;;;;;5012897;28;20292;-67
2022/05/29 00:30:35;;;;;;;8.17;3.40;;;9.80;99.90;;;;;;5013847;28;20251;-67
2022/05/29 00:33:03;;;;;;;7.90;3.13;;;9.70;99.90;;;;;;4996426;28;20634;-67
2022/05/29 00:35:29;;;;;;;7.47;3.30;;;9.70;99.90;;;;;;5012468;28;20310;-67
2022/05/29 00:37:57;;;;;;;8.00;3.23;;;9.60;99.90;;;;;;5012508;28;20208;-68
2022/05/29 00:40:26;;;;;;;5.77;3.33;;;9.60;99.90;;;;;;5012497;28;20238;-68
2022/05/29 00:42:53;;;;;;;7.00;3.60;;;9.50;99.90;;;;;;5012622;28;20294;-67
2022/05/29 00:45:27;;;;;;;7.10;3.40;;;9.50;99.90;;;;;;5013761;28;20227;-68
2022/05/29 00:47:54;;;;;;;8.93;3.67;;;9.50;99.90;;;;;;5012116;28;20204;-69
2022/05/29 00:50:23;;;;;;;5.57;3.40;;;9.50;99.90;;;;;;5012439;28;20204;-67
2022/05/29 00:52:51;;;;;;;6.53;3.50;;;9.50;99.90;;;;;;5012166;28;20199;-65
2022/05/29 00:55:23;;;;;;;5.57;3.33;;;9.50;99.90;;;;;;5012324;28;20520;-67
2022/05/29 00:57:59;;;;;;;5.80;3.10;;;9.60;99.90;;;;;;5012355;28;20401;-67
2022/05/29 01:00:29;;;;;;;5.30;3.07;;;9.60;99.90;;;;;;5012457;28;20235;-67
2022/05/29 01:03:00;;;;;;;6.70;3.40;;;9.60;99.90;;;;;;5012485;28;20230;-67
2022/05/29 01:05:31;;;;;;;7.33;3.53;;;9.60;99.90;;;;;;5012147;28;20291;-67
2022/05/29 01:08:02;;;;;;;7.97;2.80;;;9.60;99.90;;;;;;5012432;28;20668;-66
2022/05/29 01:10:37;;;;;;;5.80;2.80;;;9.70;99.90;;;;;;5013375;28;20274;-68
2022/05/29 01:13:23;;;;;;;5.30;2.90;;;9.70;99.90;;;;;;5013331;28;20276;-68
2022/05/29 01:15:59;;;;;;;7.00;2.50;;;9.70;99.90;;;;;;5012079;28;20345;-67
2022/05/29 01:18:57;;;;;;;6.67;2.70;;;9.70;99.90;;;;;;5013502;28;20196;-66
2022/05/29 01:22:03;;;;;;;5.63;2.80;;;9.70;99.90;;;;;;4995468;28;20259;-66
2022/05/29 01:25:07;;;;;;;6.53;3.00;;;9.80;99.90;;;;;;5011484;28;20299;-66
2022/05/29 01:27:55;;;;;;;5.00;2.73;;;9.80;99.90;;;;;;5011960;28;20352;-67
2022/05/29 01:30:25;;;;;;;8.23;2.73;;;9.80;99.90;;;;;;5011991;28;20228;-68
2022/05/29 01:33:04;;;;;;;5.17;2.80;;;9.80;99.90;;;;;;5012005;28;20530;-67
2022/05/29 01:35:37;;;;;;;6.07;2.90;;;9.80;99.90;;;;;;5011315;28;20234;-68
2022/05/29 01:38:11;;;;;;;6.63;3.03;;;9.80;99.90;;;;;;5013056;28;20204;-68
2022/05/29 01:40:43;;;;;;;6.93;2.93;;;9.80;99.90;;;;;;4995327;28;20558;-67
2022/05/29 01:43:15;;;;;;;8.27;2.87;;;9.80;99.90;;;;;;5011656;28;20223;-67
2022/05/29 01:46:05;;;;;;;5.63;2.50;;;9.80;99.90;;;;;;5011596;28;20279;-67
2022/05/29 01:48:59;;;;;;;6.50;2.70;;;9.80;99.90;;;;;;5011464;28;20240;-67
2022/05/29 01:51:36;;;;;;;4.77;2.50;;;9.80;99.90;;;;;;5012699;28;20192;-67
2022/05/29 01:54:41;;;;;;;6.37;2.80;;;9.70;99.90;;;;;;5011430;28;20200;-66
2022/05/29 01:57:17;;;;;;;6.40;2.63;;;9.70;99.90;;;;;;4936084;29;20316;-67
2022/05/29 02:00:13;;;;;;;5.50;2.90;;;9.70;99.90;;;;;;4952561;29;20343;-68
2022/05/29 02:02:48;;;;;;;5.53;2.80;;;9.70;99.90;;;;;;4949667;29;20220;-67
2022/05/29 02:05:25;;;;;;;4.90;2.67;;;9.70;99.90;;;;;;4952068;28;20264;-67
2022/05/29 02:08:02;;;;;;;7.23;2.70;;;9.80;99.90;;;;;;4952420;28;20607;-67
2022/05/29 02:10:43;;;;;;;7.70;2.93;;;9.80;99.90;;;;;;4936279;29;20352;-67
2022/05/29 02:13:37;;;;;;;6.87;2.83;;;9.70;99.90;;;;;;4951917;28;20224;-67
2022/05/29 02:16:11;;;;;;;6.37;2.70;;;9.70;99.90;;;;;;4935879;29;20660;-67
2022/05/29 02:19:00;;;;;;;5.70;2.87;;;9.70;99.90;;;;;;4936370;29;20698;-68
2022/05/29 02:21:42;;;;;;;6.13;2.93;;;9.60;99.90;;;;;;4935906;28;20269;-67
2022/05/29 02:24:14;;;;;;;7.13;2.50;;;9.60;99.90;;;;;;4935865;29;20679;-67
2022/05/29 02:26:46;;;;;;;8.83;3.20;;;9.50;99.90;;;;;;4952128;28;20211;-67
2022/05/29 02:29:14;;;;;;;7.10;3.00;;;9.50;99.90;;;;;;4936055;29;20210;-67
2022/05/29 02:31:50;;;;;;;8.93;3.20;;;9.50;99.90;;;;;;4990862;28;20620;-67
2022/05/29 02:34:25;;;;;;;5.90;3.20;;;9.50;99.90;;;;;;5011312;28;20214;-67
2022/05/29 02:37:02;;;;;;;4.20;2.90;;;9.50;99.90;;;;;;5011091;28;20409;-67
2022/05/29 02:39:31;;;;;;;5.67;3.20;;;9.50;99.90;;;;;;5011004;28;20671;-67
2022/05/29 02:42:22;;;;;;;6.63;3.50;;;9.50;99.90;;;;;;5012627;28;20193;-68
2022/05/29 02:45:19;;;;;;;7.67;3.60;;;9.40;99.90;;;;;;5010773;28;20214;-67
2022/05/29 02:48:04;;;;;;;6.47;3.00;;;9.40;99.90;;;;;;5011195;28;20205;-67
2022/05/29 02:50:46;;;;;;;8.17;3.33;;;9.40;99.90;;;;;;5011031;28;20722;-67
2022/05/29 02:53:15;;;;;;;6.80;2.90;;;9.40;99.90;;;;;;5010962;28;20196;-67
2022/05/29 02:55:44;;;;;;;5.87;3.13;;;9.40;99.90;;;;;;5010830;28;20227;-67
2022/05/29 02:58:18;;;;;;;5.47;3.37;;;9.30;99.90;;;;;;5010844;28;20666;-67
2022/05/29 03:01:26;;;;;;;7.27;3.40;;;9.30;99.90;;;;;;5013648;28;20197;-67
2022/05/29 03:04:04;;;;;;;6.23;3.30;;;9.30;99.90;;;;;;5014789;28;20274;-67
2022/05/29 03:06:50;;;;;;;10.57;3.60;;;9.30;99.90;;;;;;5014531;28;20699;-68
2022/05/29 03:09:43;;;;;;;8.97;3.33;;;9.40;99.90;;;;;;5014687;28;20199;-67
2022/05/29 03:12:44;;;;;;;10.03;3.37;;;9.40;99.90;;;;;;5014696;28;20250;-67
2022/05/29 03:15:38;;;;;;;5.43;3.00;;;9.40;99.90;;;;;;4939126;29;20212;-68
2022/05/29 03:18:32;;;;;;;8.43;3.40;;;9.40;99.90;;;;;;4954555;29;20326;-68
2022/05/29 03:21:22;;;;;;;6.57;3.33;;;9.50;99.90;;;;;;4938847;29;20249;-68
2022/05/29 03:24:12;;;;;;;7.00;3.40;;;9.50;99.90;;;;;;4939845;29;20849;-68
2022/05/29 03:27:00;;;;;;;8.03;2.93;;;9.50;99.90;;;;;;4954975;29;20260;-68
2022/05/29 03:29:47;;;;;;;6.00;3.40;;;9.50;99.90;;;;;;4939264;29;20286;-69
2022/05/29 03:32:15;;;;;;;8.40;3.50;;;9.50;99.90;;;;;;4938930;29;20667;-68
2022/05/29 03:34:43;;;;;;;7.37;3.47;;;9.50;99.90;;;;;;4938722;29;20202;-69
2022/05/29 03:37:10;;;;;;;6.70;3.13;;;9.70;99.90;;;;;;4938701;28;20222;-69
2022/05/29 03:39:37;;;;;;;8.00;3.60;;;9.70;99.90;;;;;;4954651;29;20217;-66
2022/05/29 03:42:05;;;;;;;7.40;3.63;;;9.80;99.90;;;;;;4938968;29;20301;-68
2022/05/29 03:44:32;;;;;;;8.40;3.40;;;9.80;99.90;;;;;;4938366;29;20204;-68
2022/05/29 03:46:59;;;;;;;6.90;3.47;;;9.90;99.90;;;;;;4938763;29;20680;-69
2022/05/29 03:49:26;;;;;;;6.70;2.93;;;9.90;99.90;;;;;;4954719;28;20206;-68
2022/05/29 03:51:53;;;;;;;7.17;3.40;;;9.80;99.90;;;;;;4966002;28;20661;-66
2022/05/29 03:54:20;;;;;;;7.83;3.40;;;9.90;99.90;;;;;;5014939;28;20196;-66
2022/05/29 03:56:47;;;;;;;5.77;3.27;;;9.90;99.90;;;;;;5014730;28;20753;-66
2022/05/29 03:59:13;;;;;;;6.17;2.93;;;9.90;99.90;;;;;;5014180;28;20215;-66
2022/05/29 04:01:40;;;;;;;7.13;3.30;;;9.90;99.90;;;;;;5013366;28;20228;-68
2022/05/29 04:04:08;;;;;;;8.80;3.17;;;10.00;99.90;;;;;;5013744;28;20208;-68
2022/05/29 04:06:36;;;;;;;6.03;3.20;;;9.90;99.90;;;;;;5013270;28;20287;-68
2022/05/29 04:12:04;;;;;;;9.13;3.23;;;9.80;99.90;;;;;;5013069;28;20199;-67
2022/05/29 04:14:39;;;;;;;6.83;3.10;;;9.80;99.90;;;;;;5014252;28;20192;-67
2022/05/29 04:17:07;;;;;;;7.53;3.13;;;9.90;99.90;;;;;;5013094;28;20269;-67
2022/05/29 04:19:34;;;;;;;7.37;3.40;;;9.90;99.90;;;;;;5014466;28;20282;-67
2022/05/29 04:22:10;;;;;;;5.80;3.20;;;9.90;99.90;;;;;;5014411;28;20251;-67
2022/05/29 04:24:37;;;;;;;5.27;3.20;;;9.90;99.90;;;;;;5013141;28;20627;-67
2022/05/29 04:27:10;;;;;;;6.43;3.00;;;9.90;99.90;;;;;;5013036;28;20630;-67
2022/05/29 04:29:38;;;;;;;9.53;3.10;;;9.80;99.90;;;;;;5013180;28;20192;-68
2022/05/29 04:34:56;;;;;;;5.47;3.20;;;9.90;99.90;;;;;;5012623;28;20236;-67
2022/05/29 04:37:23;;;;;;;9.33;3.30;;;9.90;99.90;;;;;;5013166;28;20250;-67
2022/05/29 04:39:50;;;;;;;6.93;3.10;;;10.00;99.90;;;;;;5012837;28;20200;-67
2022/05/29 04:42:16;;;;;;;7.00;3.03;;;10.10;99.90;;;;;;5012998;28;20265;-67
2022/05/29 04:44:43;;;;;;;7.17;3.40;;;10.20;99.90;;;;;;5013172;28;20251;-66
2022/05/29 04:47:10;;;;;;;8.07;3.10;;;10.20;99.90;;;;;;5012854;28;20294;-66
2022/05/29 04:49:38;;;;;;;7.20;3.17;;;10.20;99.90;;;;;;5012788;28;20291;-67
2022/05/29 04:52:07;;;;;;;8.60;3.40;;;10.20;99.90;;;;;;5012586;28;20298;-67
2022/05/29 04:54:35;;;;;;;9.10;3.57;;;10.30;99.90;;;;;;5013959;28;20283;-67
2022/05/29 04:57:02;;;;;;;8.70;3.30;;;10.20;99.90;;;;;;5012177;28;20223;-67
2022/05/29 04:59:29;;;;;;;8.40;3.60;;;10.20;99.90;;;;;;4996298;28;20295;-67
2022/05/29 05:02:00;;;;;;;5.37;3.20;;;10.30;99.90;;;;;;5012311;28;20228;-67
2022/05/29 05:04:27;;;;;;;11.50;3.60;;;10.30;99.90;;;;;;5012177;28;20214;-68
2022/05/29 05:06:55;;;;;;;8.43;3.30;;;10.50;99.90;;;;;;5012732;28;20704;-67
2022/05/29 05:09:22;;;;;;;8.27;3.53;;;10.60;99.90;;;;;;5011995;28;20287;-66
2022/05/29 05:11:54;;;;;;;7.87;3.73;;;10.60;99.90;;;;;;5012330;28;20721;-67
2022/05/29 05:14:23;;;;;;;5.57;3.40;;;10.50;99.90;;;;;;5011894;28;20294;-67
2022/05/29 05:16:53;;;;;;;8.00;3.80;;;10.60;99.90;;;;;;5012466;28;20554;-68
2022/05/29 05:19:20;;;;;;;8.17;4.07;;;10.70;99.90;;;;;;5013060;28;20279;-67
2022/05/29 05:21:48;;;;;;;7.87;4.07;;;10.70;99.90;;;;;;5011890;28;20307;-68
2022/05/29 05:24:16;;;;;;;8.40;3.83;;;10.70;99.90;;;;;;5012534;28;20200;-67
2022/05/29 05:26:44;;;;;;;9.90;4.00;;;10.70;99.90;;;;;;5011735;28;20208;-68
2022/05/29 05:29:12;;;;;;;7.03;4.20;;;10.80;99.90;;;;;;5012304;28;20200;-67
2022/05/29 05:31:38;;;;;;;9.70;4.27;;;10.90;99.90;;;;;;5011731;28;20295;-68
2022/05/29 05:34:05;;;;;;;7.50;4.00;;;11.00;99.90;;;;;;5013292;28;20629;-69
2022/05/29 05:36:32;;;;;;;8.30;4.43;;;11.00;99.90;;;;;;5011848;28;20294;-68
2022/05/29 05:38:59;;;;;;;10.17;4.60;;;11.10;99.90;;;;;;5011798;28;20299;-69
2022/05/29 05:41:26;;;;;;;9.10;4.20;;;11.10;99.90;;;;;;5012112;28;20200;-68
2022/05/29 05:43:53;;;;;;;8.50;3.97;;;11.20;99.90;;;;;;5011506;28;20208;-68
2022/05/29 05:46:20;;;;;;;9.13;4.20;;;11.30;99.90;;;;;;5011764;28;20196;-67
2022/05/29 05:48:47;;;;;;;7.33;3.93;;;11.30;99.90;;;;;;5011761;28;20214;-68
2022/05/29 05:51:14;;;;;;;10.00;3.80;;;11.40;99.90;;;;;;5011670;28;20196;-68
2022/05/29 05:53:41;;;;;;;9.27;4.23;;;11.40;99.90;;;;;;5011470;28;20200;-68
2022/05/29 05:56:14;;;;;;;11.00;4.40;;;11.50;99.90;;;;;;5011577;28;20207;-68
2022/05/29 05:58:43;;;;;;;8.80;4.50;;;11.50;99.90;;;;;;5011327;28;20326;-68
2022/05/29 06:01:18;;;;;;;11.30;4.40;;;11.50;99.90;;;;;;5011558;28;20199;-68
2022/05/29 06:03:46;;;;;;;10.77;4.60;;;11.40;99.90;;;;;;5011507;28;20196;-67
2022/05/29 06:06:12;;;;;;;10.13;4.33;;;11.50;99.90;;;;;;5011246;28;20204;-68
2022/05/29 06:08:39;;;;;;;8.87;4.97;;;11.40;99.90;;;;;;5011681;28;20627;-67
2022/05/29 06:11:06;;;;;;;10.47;4.83;;;11.50;99.90;;;;;;5011487;28;20204;-68
2022/05/29 06:13:33;;;;;;;11.67;5.10;;;11.40;99.90;;;;;;5011483;28;20290;-69
2022/05/29 06:16:02;;;;;;;9.43;4.80;;;11.40;99.90;;;;;;5012662;28;20238;-70
2022/05/29 06:18:29;;;;;;;7.87;4.80;;;11.40;99.90;;;;;;5008377;28;20764;-69
2022/05/29 06:20:58;;;;;;;11.47;5.40;;;11.50;99.90;;;;;;5011048;28;20234;-69
2022/05/29 06:23:24;;;;;;;12.50;5.50;;;11.70;99.90;;;;;;5010323;28;20222;-70
2022/05/29 06:25:51;;;;;;;10.37;5.70;;;11.80;99.90;;;;;;5010961;28;20203;-67
2022/05/29 06:28:18;;;;;;;11.40;5.37;;;11.80;99.90;;;;;;5010840;28;20224;-69
2022/05/29 06:30:45;;;;;;;10.13;6.20;;;11.60;99.90;;;;;;5012322;28;20708;-69
2022/05/29 06:33:13;;;;;;;9.63;5.40;;;11.70;99.90;;;;;;5010968;28;20235;-70
2022/05/29 06:35:39;;;;;;;10.13;5.13;;;11.80;99.90;;;;;;5013742;28;20204;-69
2022/05/29 06:38:06;;;;;;;11.83;5.10;;;11.90;99.90;;;;;;5015030;28;20685;-70
2022/05/29 06:40:34;;;;;;;10.70;4.90;;;11.90;99.90;;;;;;5014780;28;20193;-71
2022/05/29 06:43:01;;;;;;;8.07;5.00;;;12.00;99.90;;;;;;5015070;28;20254;-70
2022/05/29 06:45:29;;;;;;;11.33;5.00;;;12.20;99.90;;;;;;5014499;28;20200;-70
2022/05/29 06:47:56;;;;;;;6.43;4.20;;;12.10;99.90;;;;;;5029275;28;20207;-70
2022/05/29 06:50:23;;;;;;;14.93;4.77;;;12.20;99.90;;;;;;5024145;28;20211;-70
2022/05/29 06:52:50;;;;;;;9.23;4.60;;;12.10;99.90;;;;;;5014401;28;20331;-69
2022/05/29 06:55:17;;;;;;;8.73;3.90;;;12.20;99.90;;;;;;5014122;28;20204;-69
2022/05/29 06:57:46;;;;;;;6.83;3.83;;;12.40;99.90;;;;;;5014512;28;20230;-69
2022/05/29 07:08:35;;;;;;;6.70;3.60;;;12.70;99.90;;;;;;5014415;28;20615;-69
2022/05/29 07:11:07;;;;;;;7.17;3.70;;;12.70;99.90;;;;;;5014226;28;20236;-69
2022/05/29 07:13:35;;;;;;;8.37;3.70;;;12.80;99.90;;;;;;5014165;28;20200;-69
2022/05/29 07:16:02;;;;;;;9.13;3.87;;;12.90;99.90;;;;;;5014430;28;20311;-69
2022/05/29 07:18:29;;;;;;;8.57;3.37;;;13.00;99.90;;;;;;5032387;28;20247;-69
2022/05/29 07:21:04;;;;;;;8.13;3.27;;;13.00;99.90;;;;;;5033661;28;20290;-69
2022/05/29 07:23:33;;;;;;;7.93;3.43;;;13.10;99.90;;;;;;5033610;28;20223;-69
2022/05/29 07:25:59;;;;;;;7.03;3.40;;;13.20;99.90;;;;;;5033599;28;20199;-70
2022/05/29 07:28:27;;;;;;;5.67;2.87;;;13.10;99.90;;;;;;5033566;28;20514;-69
2022/05/29 07:30:54;;;;;;;7.33;2.97;;;13.40;99.90;;;;;;5033795;28;20235;-69
2022/05/29 07:33:26;;;;;;;8.13;3.20;;;13.60;99.90;;;;;;5035136;28;20188;-69
2022/05/29 07:35:53;;;;;;;9.63;3.20;;;13.50;99.90;;;;;;5033214;28;20229;-69
2022/05/29 07:38:19;;;;;;;6.87;2.90;;;13.40;99.90;;;;;;5033654;28;20579;-69
2022/05/29 07:40:46;;;;;;;9.70;3.20;;;13.50;99.90;;;;;;5033622;28;20199;-69
2022/05/29 07:43:20;;;;;;;6.97;2.87;;;13.50;99.90;;;;;;5034552;28;20215;-70
2022/05/29 07:45:57;;;;;;;5.77;2.90;;;13.30;99.90;;;;;;5032330;28;20671;-69
2022/05/29 07:48:27;;;;;;;6.73;2.50;;;13.50;99.90;;;;;;5032841;28;20209;-69
2022/05/29 07:50:55;;;;;;;8.37;3.03;;;13.60;99.90;;;;;;5033285;28;20299;-69
2022/05/29 07:53:22;;;;;;;6.67;2.60;;;13.60;99.90;;;;;;5032891;28;20227;-68
2022/05/29 07:55:48;;;;;;;5.93;2.93;;;13.70;99.90;;;;;;5033432;28;20572;-70
2022/05/29 07:58:17;;;;;;;7.33;2.50;;;13.80;99.90;;;;;;5034158;28;20246;-69
2022/05/29 08:00:43;;;;;;;7.33;2.40;;;14.00;99.90;;;;;;5032989;28;20278;-68
2022/05/29 08:03:11;;;;;;;6.80;2.60;;;14.00;99.90;;;;;;5033250;28;20704;-69
2022/05/29 08:05:38;;;;;;;9.20;2.60;;;13.80;99.90;;;;;;5032929;28;20249;-69
2022/05/29 08:08:08;;;;;;;7.17;2.27;;;14.10;99.90;;;;;;5034335;28;20215;-70
2022/05/29 08:10:38;;;;;;;8.67;2.50;;;14.10;99.90;;;;;;5034069;28;20639;-68
2022/05/29 08:13:05;;;;;;;5.77;2.53;;;13.70;99.90;;;;;;5033451;28;20285;-70
2022/05/29 08:15:32;;;;;;;7.03;2.27;;;13.70;99.90;;;;;;5015903;28;20637;-73
2022/05/29 08:17:59;;;;;;;8.93;2.60;;;13.40;99.90;;;;;;5032804;28;20329;-70
2022/05/29 08:20:27;;;;;;;9.30;2.60;;;13.70;99.90;;;;;;5032459;28;20227;-70
2022/05/29 08:22:54;;;;;;;5.40;2.00;;;14.70;99.90;;;;;;5032758;28;20735;-70
2022/05/29 08:30:53;;;;;;;5.20;2.20;;;15.90;99.90;;;;;;5032627;28;20287;-68
2022/05/29 08:33:26;;;;;;;6.97;2.03;;;15.70;99.90;;;;;;5032640;28;20211;-70
2022/05/29 08:36:10;;;;;;;7.83;2.10;;;15.90;99.90;;;;;;5033792;28;20194;-69
2022/05/29 08:38:41;;;;;;;8.07;2.10;;;15.90;99.90;;;;;;5032203;28;20235;-69
2022/05/29 08:41:40;;;;;;;6.90;1.90;;;16.10;99.90;;;;;;5034052;28;20219;-70
2022/05/29 08:44:15;;;;;;;6.23;2.33;;;15.80;99.90;;;;;;5029124;28;20210;-69
2022/05/29 08:46:53;;;;;;;6.27;2.20;;;15.70;99.90;;;;;;5032215;28;20224;-69
2022/05/29 08:49:25;;;;;;;5.27;2.20;;;15.80;99.90;;;;;;5032525;28;20567;-68
2022/05/29 08:52:13;;;;;;;4.57;2.20;;;15.90;99.90;;;;;;5033469;28;20648;-70
2022/05/29 08:54:42;;;;;;;6.07;2.20;;;15.80;99.90;;;;;;5031916;28;20207;-70
2022/05/29 08:57:09;;;;;;;5.77;2.10;;;15.70;99.90;;;;;;5033680;28;20196;-69
2022/05/29 08:59:48;;;;;;;7.23;2.23;;;15.00;99.90;;;;;;5032073;28;20262;-69
2022/05/29 09:02:14;;;;;;;4.77;2.00;;;14.70;99.90;;;;;;5031912;28;20201;-72
2022/05/29 09:04:54;;;;;;;5.60;2.30;;;14.90;99.90;;;;;;5032224;28;20228;-69
2022/05/29 09:07:22;;;;;;;4.33;2.30;;;14.80;99.90;;;;;;5015290;28;20563;-70
2022/05/29 09:10:12;;;;;;;4.60;2.30;;;14.90;99.90;;;;;;5032008;28;20191;-68
2022/05/29 09:12:49;;;;;;;6.77;2.73;;;15.00;99.90;;;;;;5032162;28;20621;-70
2022/05/29 09:15:38;;;;;;;6.00;2.30;;;15.00;99.90;;;;;;5014706;28;20283;-70
2022/05/29 09:18:23;;;;;;;9.17;2.60;;;15.20;99.90;;;;;;5031985;28;20219;-69
2022/05/29 09:21:05;;;;;;;5.20;2.17;;;15.10;99.90;;;;;;5031631;28;20330;-72
2022/05/29 09:23:40;;;;;;;5.17;2.03;;;15.10;99.90;;;;;;5031267;28;20239;-70
2022/05/29 09:26:14;;;;;;;4.77;2.07;;;14.80;99.90;;;;;;5016423;28;20535;-70
2022/05/29 09:28:41;;;;;;;7.53;2.80;;;14.90;99.90;;;;;;5011776;28;20283;-69
2022/05/29 09:31:13;;;;;;;5.00;2.33;;;14.90;99.90;;;;;;5011526;28;20573;-69
2022/05/29 09:33:41;;;;;;;7.03;2.50;;;14.70;99.90;;;;;;5011814;28;20608;-69
2022/05/29 09:36:25;;;;;;;4.33;2.00;;;14.80;99.90;;;;;;5011447;28;20649;-68
2022/05/29 09:38:58;;;;;;;7.57;2.30;;;14.90;99.90;;;;;;5010964;28;20219;-68
2022/05/29 09:41:35;;;;;;;4.03;2.07;;;14.90;99.90;;;;;;5011713;28;20204;-69
2022/05/29 09:44:04;;;;;;;5.03;2.30;;;14.80;99.90;;;;;;5011716;28;20210;-68
2022/05/29 09:46:34;;;;;;;5.87;2.30;;;14.90;99.90;;;;;;5011142;28;20231;-70
2022/05/29 09:51:58;;;;;;;6.13;2.30;;;15.00;99.90;;;;;;5012945;28;20611;-69
2022/05/29 09:54:30;;;;;;;7.30;2.20;;;15.20;99.90;;;;;;5010997;28;20227;-69
2022/05/29 09:57:11;;;;;;;4.73;2.20;;;15.30;99.90;;;;;;5029599;28;20302;-68
2022/05/29 09:59:43;;;;;;;4.67;2.17;;;15.50;99.90;;;;;;5032214;28;20234;-73
2022/05/29 10:02:27;;;;;;;6.57;2.10;;;15.60;99.90;;;;;;5031197;28;20290;-70
2022/05/29 10:04:59;;;;;;;6.77;2.00;;;15.40;99.90;;;;;;5030743;28;20340;-68
2022/05/29 10:07:42;;;;;;;6.83;2.30;;;15.50;99.90;;;;;;5014832;28;20243;-65
2022/05/29 10:10:13;;;;;;;5.30;2.10;;;15.30;99.90;;;;;;5031400;28;20195;-67
2022/05/29 10:12:42;;;;;;;4.60;1.97;;;15.20;99.90;;;;;;5031262;28;20616;-69
2022/05/29 10:15:15;;;;;;;6.90;2.10;;;15.30;99.90;;;;;;5030668;28;20290;-69
2022/05/29 10:17:43;;;;;;;7.10;2.30;;;15.60;99.90;;;;;;5031045;28;20314;-70
2022/05/29 10:20:34;;;;;;;4.27;1.80;;;15.90;99.90;;;;;;5030703;28;20246;-69
2022/05/29 10:23:23;;;;;;;7.03;2.30;;;15.90;99.90;;;;;;5030624;28;20329;-69
2022/05/29 10:25:57;;;;;;;5.70;1.97;;;15.90;99.90;;;;;;5013382;28;20732;-70
2022/05/29 10:28:31;;;;;;;6.63;2.20;;;15.90;99.90;;;;;;5030708;28;20187;-70
2022/05/29 10:31:14;;;;;;;3.73;2.03;;;15.80;99.90;;;;;;5030331;28;20290;-73
2022/05/29 10:34:09;;;;;;;4.80;2.30;;;15.40;99.90;;;;;;5030512;28;20206;-70
2022/05/29 10:36:39;;;;;;;6.30;2.30;;;14.90;99.90;;;;;;5030853;28;20201;-70
2022/05/29 10:39:05;;;;;;;6.30;2.40;;;14.80;99.90;;;;;;5031697;28;20269;-70
2022/05/29 10:41:36;;;;;;;4.53;2.33;;;14.50;99.90;;;;;;5030428;28;20192;-71
2022/05/29 10:44:03;;;;;;;5.87;2.50;;;14.40;99.90;;;;;;5018543;28;20664;-72
2022/05/29 10:47:08;;;;;;;5.63;2.83;;;14.40;99.90;;;;;;5010511;28;20250;-71
2022/05/29 10:49:39;;;;;;;5.27;2.50;;;14.80;99.90;;;;;;4969916;28;20217;-69
2022/05/29 10:52:06;;;;;;;6.80;2.70;;;14.90;99.90;;;;;;4939437;28;20729;-70
2022/05/29 10:54:58;;;;;;;6.40;2.30;;;15.10;99.90;;;;;;4950922;28;20213;-69
2022/05/29 10:57:56;;;;;;;5.63;2.30;;;15.30;99.90;;;;;;4960421;28;20320;-70
2022/05/29 11:00:52;;;;;;;6.60;2.37;;;15.70;99.90;;;;;;4935311;29;20312;-71
2022/05/29 11:03:28;;;;;;;7.60;2.60;;;16.10;99.90;;;;;;4935377;29;20213;-69
2022/05/29 11:05:57;;;;;;;5.30;2.07;;;16.50;99.90;;;;;;4935502;29;20573;-69
2022/05/29 11:08:33;;;;;;;4.80;1.83;;;16.30;99.90;;;;;;4935251;29;20301;-70
2022/05/29 11:11:02;;;;;;;4.93;1.70;;;16.40;99.90;;;;;;4935079;29;20214;-70
2022/05/29 11:13:48;;;;;;;3.63;1.77;;;16.80;99.90;;;;;;4935120;29;20668;-74
2022/05/29 11:16:26;;;;;;;5.27;1.50;;;17.10;99.90;;;;;;4951129;28;20230;-69
2022/05/29 11:19:04;;;;;;;5.37;1.80;;;16.80;99.90;;;;;;4935237;29;20230;-70
2022/05/29 11:22:10;;;;;;;5.13;1.70;;;17.00;99.90;;;;;;4935857;29;20328;-70
2022/05/29 11:24:49;;;;;;;4.33;1.50;;;17.10;99.90;;;;;;4960103;28;20229;-70
2022/05/29 11:27:38;;;;;;;7.53;1.73;;;17.10;99.90;;;;;;4976403;28;20284;-70
2022/05/29 11:30:22;;;;;;;4.17;1.60;;;16.90;99.90;;;;;;4990985;28;20644;-76
2022/05/29 11:32:55;;;;;;;5.27;1.63;;;16.90;99.90;;;;;;4974705;28;20304;-70
2022/05/29 11:35:47;;;;;;;3.37;1.50;;;16.80;99.90;;;;;;4974658;28;20201;-70
2022/05/29 11:38:47;;;;;;;4.83;1.80;;;16.40;99.90;;;;;;4974658;28;20228;-70
2022/05/29 11:41:24;;;;;;;4.93;1.73;;;16.20;99.90;;;;;;4974640;28;20648;-70
2022/05/29 11:44:15;;;;;;;4.70;1.60;;;16.10;99.90;;;;;;4990894;28;20201;-70
2022/05/29 11:52:53;;;;;;;3.27;1.50;;;16.10;99.90;;;;;;4974214;28;20198;-69
2022/05/29 11:55:23;;;;;;;3.57;1.70;;;16.30;99.90;;;;;;4998532;28;20292;-70
2022/05/29 11:57:58;;;;;;;3.30;1.50;;;16.40;99.90;;;;;;5013544;28;20294;-70
2022/05/29 12:00:46;;;;;;;7.37;1.83;;;16.60;99.90;;;;;;5013139;28;20846;-70
2022/05/29 12:03:34;;;;;;;6.93;1.70;;;16.90;99.90;;;;;;5013445;28;20204;-70
2022/05/29 12:06:09;;;;;;;4.53;1.77;;;16.90;99.90;;;;;;5013547;28;20207;-70
2022/05/29 12:08:39;;;;;;;5.93;1.57;;;17.10;99.90;;;;;;5013416;28;20235;-70
2022/05/29 12:11:21;;;;;;;5.87;1.67;;;17.10;99.90;;;;;;5014265;28;20243;-70
2022/05/29 12:14:07;;;;;;;5.03;1.60;;;17.40;99.90;;;;;;4996428;28;20243;-70
2022/05/29 12:16:37;;;;;;;5.83;1.40;;;18.30;99.90;;;;;;4993030;28;20678;-70
2022/05/29 12:19:16;;;;;;;6.40;1.60;;;18.20;99.90;;;;;;4993155;28;20248;-70
2022/05/29 12:21:55;;;;;;;4.00;1.63;;;18.30;99.90;;;;;;5012422;28;20235;-69
2022/05/29 12:24:28;;;;;;;3.27;1.60;;;18.30;99.90;;;;;;5014090;28;20595;-70
2022/05/29 12:27:13;;;;;;;5.20;1.80;;;18.70;99.90;;;;;;5029685;28;20199;-71
2022/05/29 12:30:01;;;;;;;4.63;2.30;;;19.20;99.90;;;;;;5032556;28;20234;-70
2022/05/29 12:32:37;;;;;;;4.30;1.60;;;20.20;99.90;;;;;;5031946;28;20673;-69
2022/05/29 12:35:35;;;;;;;4.43;1.60;;;21.10;99.90;;;;;;5032003;28;20195;-70
2022/05/29 12:38:47;;;;;;;5.40;1.53;;;22.00;99.90;;;;;;5033283;28;20223;-70
2022/05/29 12:41:58;;;;;;;2.93;1.60;;;23.20;96.50;;;;;;5032142;28;20230;-70
2022/05/29 12:45:23;;;;;;;4.27;1.60;;;23.20;94.50;;;;;;5033193;28;20183;-70
2022/05/29 12:48:03;;;;;;;5.40;1.47;;;24.20;92.40;;;;;;5015877;28;20214;-69
2022/05/29 12:50:47;;;;;;;4.43;1.75;;;24.60;84.50;;;;;;5032251;28;20195;-73
2022/05/29 12:53:49;;;;;;;3.08;1.45;;;24.40;79.20;;;;;;5032472;28;20290;-69
2022/05/29 12:56:24;;;;;;;5.53;1.77;;;24.40;80.00;;;;;;5031794;28;20294;-78
2022/05/29 12:59:13;;;;;;;4.07;1.67;;;24.00;82.10;;;;;;5031711;28;20269;-82
2022/05/29 13:01:58;;;;;;;3.53;1.75;;;22.20;82.50;;;;;;5031683;28;20223;-67
2022/05/29 13:04:54;;;;;;;5.03;1.80;;;22.20;88.30;;;;;;5032042;28;20650;-69
2022/05/29 13:07:21;;;;;;;4.53;1.70;;;22.90;86.20;;;;;;5031817;28;20230;-77
2022/05/29 13:10:18;;;;;;;3.88;1.55;;;24.20;85.50;;;;;;5031600;28;20227;-68
2022/05/29 13:12:49;;;;;;;3.13;1.23;;;24.60;73.10;;;;;;5031711;28;20195;-68
2022/05/29 13:15:30;;;;;;;2.75;1.30;;;25.10;69.90;;;;;;5032818;28;20196;-68
2022/05/29 13:18:01;;;;;;;2.95;1.60;;;25.70;67.40;;;;;;5031599;28;20282;-67
2022/05/29 13:20:28;;;;;;;4.07;1.40;;;26.30;66.80;;;;;;5031426;28;20331;-69
2022/05/29 13:23:03;;;;;;;2.90;1.40;;;26.10;65.40;;;;;;5032753;28;20306;-72
2022/05/29 13:25:57;;;;;;;3.70;1.40;;;26.50;64.50;;;;;;5031027;28;20195;-77
2022/05/29 13:28:47;;;;;;;4.90;1.60;;;27.00;62.10;;;;;;5032874;28;20203;-68
2022/05/29 13:31:17;;;;;;;4.07;1.70;;;27.30;59.80;;;;;;5032585;28;20199;-73
2022/05/29 13:33:53;;;;;;;2.80;1.40;;;26.20;57.70;;;;;;5031630;28;20210;-77
2022/05/29 13:36:47;;;;;;;3.80;1.33;;;26.40;60.70;;;;;;5032231;28;20218;-71
2022/05/29 13:39:23;;;;;;;2.08;1.20;;;26.20;58.90;;;;;;5031724;28;20227;-68
2022/05/29 13:41:57;;;;;;;5.05;1.50;;;25.90;58.70;;;;;;5031767;28;20199;-68
2022/05/29 13:44:33;;;;;;;2.60;1.50;;;24.80;60.60;;;;;;5030383;28;20253;-69
2022/05/29 13:47:18;;;;;;;4.78;1.70;;;24.00;63.90;;;;;;5031537;28;20198;-67
2022/05/29 13:50:06;;;;;;;4.68;1.80;;;22.80;67.60;;;;;;5033098;28;20297;-67
2022/05/29 13:53:15;;;;;;;5.80;1.70;;;21.70;71.10;;;;;;5031169;28;20195;-67
2022/05/29 13:55:41;;;;;;;2.70;1.63;;;21.50;72.80;;;;;;5027644;28;20231;-67
2022/05/29 14:04:00;;;;;;;2.57;1.40;;;20.00;78.70;;;;;;5031188;28;20642;-69
2022/05/29 14:07:12;;;;;;;5.90;1.40;;;19.90;81.50;;;;;;5031128;28;20283;-67